sensor_id;sensor_type;location;lat;lon;timestamp;P1;durP1;ratioP1;P2;durP2;ratioP2
75311;SDS011;63906;55.686;37.532;2023-04-15T00:01:02;2.00;;;0.90;;
75311;SDS011;63906;55.686;37.532;2023-04-15T00:06:04;2.90;;;0.70;;
75311;SDS011;63906;55.686;37.532;2023-04-15T00:11:05;1.60;;;0.80;;
75311;SDS011;63906;55.686;37.532;2023-04-15T00:16:07;1.27;;;0.50;;
75311;SDS011;63906;55.686;37.532;2023-04-15T00:21:07;0.90;;;0.32;;
75311;SDS011;63906;55.686;37.532;2023-04-15T00:26:08;2.42;;;0.68;;
75311;SDS011;63906;55.686;37.532;2023-04-15T00:31:09;1.50;;;0.77;;
75311;SDS011;63906;55.686;37.532;2023-04-15T00:36:10;1.52;;;0.63;;
75311;SDS011;63906;55.686;37.532;2023-04-15T00:41:10;1.02;;;0.65;;
75311;SDS011;63906;55.686;37.532;2023-04-15T00:46:11;1.50;;;0.90;;
75311;SDS011;63906;55.686;37.532;2023-04-15T00:51:15;0.98;;;0.32;;
75311;SDS011;63906;55.686;37.532;2023-04-15T00:56:15;1.65;;;0.50;;
75311;SDS011;63906;55.686;37.532;2023-04-15T01:01:18;2.38;;;0.80;;
75311;SDS011;63906;55.686;37.532;2023-04-15T01:06:20;0.50;;;0.30;;
75311;SDS011;63906;55.686;37.532;2023-04-15T01:11:21;1.15;;;0.63;;
75311;SDS011;63906;55.686;37.532;2023-04-15T01:16:23;1.52;;;0.57;;
75311;SDS011;63906;55.686;37.532;2023-04-15T01:21:23;4.00;;;1.10;;
75311;SDS011;63906;55.686;37.532;2023-04-15T01:26:24;0.68;;;0.40;;
75311;SDS011;63906;55.686;37.532;2023-04-15T01:31:25;1.00;;;0.68;;
75311;SDS011;63906;55.686;37.532;2023-04-15T01:36:26;1.73;;;0.57;;
75311;SDS011;63906;55.686;37.532;2023-04-15T01:41:27;0.85;;;0.50;;
75311;SDS011;63906;55.686;37.532;2023-04-15T01:46:27;1.48;;;0.70;;
75311;SDS011;63906;55.686;37.532;2023-04-15T01:51:28;1.10;;;0.60;;
75311;SDS011;63906;55.686;37.532;2023-04-15T01:56:29;1.88;;;0.90;;
75311;SDS011;63906;55.686;37.532;2023-04-15T02:01:29;3.22;;;1.02;;
75311;SDS011;63906;55.686;37.532;2023-04-15T02:06:30;4.60;;;0.87;;
75311;SDS011;63906;55.686;37.532;2023-04-15T02:11:30;4.68;;;0.90;;
75311;SDS011;63906;55.686;37.532;2023-04-15T02:16:31;2.05;;;0.63;;
75311;SDS011;63906;55.686;37.532;2023-04-15T02:21:32;2.65;;;1.23;;
75311;SDS011;63906;55.686;37.532;2023-04-15T02:26:34;3.17;;;1.48;;
75311;SDS011;63906;55.686;37.532;2023-04-15T02:31:35;2.85;;;1.40;;
75311;SDS011;63906;55.686;37.532;2023-04-15T02:36:39;0.82;;;0.32;;
75311;SDS011;63906;55.686;37.532;2023-04-15T02:41:40;4.57;;;1.23;;
75311;SDS011;63906;55.686;37.532;2023-04-15T02:46:42;3.17;;;1.25;;
75311;SDS011;63906;55.686;37.532;2023-04-15T02:51:43;1.00;;;0.30;;
75311;SDS011;63906;55.686;37.532;2023-04-15T02:56:48;3.35;;;1.20;;
75311;SDS011;63906;55.686;37.532;2023-04-15T03:01:49;8.73;;;1.30;;
75311;SDS011;63906;55.686;37.532;2023-04-15T03:06:50;2.67;;;1.10;;
75311;SDS011;63906;55.686;37.532;2023-04-15T03:11:51;1.98;;;0.50;;
75311;SDS011;63906;55.686;37.532;2023-04-15T03:16:53;1.77;;;0.77;;
75311;SDS011;63906;55.686;37.532;2023-04-15T03:21:54;4.40;;;1.00;;
75311;SDS011;63906;55.686;37.532;2023-04-15T03:26:55;0.32;;;0.22;;
75311;SDS011;63906;55.686;37.532;2023-04-15T03:31:56;1.13;;;0.32;;
75311;SDS011;63906;55.686;37.532;2023-04-15T03:36:57;1.08;;;0.70;;
75311;SDS011;63906;55.686;37.532;2023-04-15T03:41:58;1.40;;;0.82;;
75311;SDS011;63906;55.686;37.532;2023-04-15T03:46:58;2.05;;;0.63;;
75311;SDS011;63906;55.686;37.532;2023-04-15T03:51:59;4.25;;;0.90;;
75311;SDS011;63906;55.686;37.532;2023-04-15T03:56:59;2.35;;;0.60;;
75311;SDS011;63906;55.686;37.532;2023-04-15T04:02:00;1.95;;;0.80;;
75311;SDS011;63906;55.686;37.532;2023-04-15T04:07:01;2.00;;;1.10;;
75311;SDS011;63906;55.686;37.532;2023-04-15T04:12:01;2.28;;;0.65;;
75311;SDS011;63906;55.686;37.532;2023-04-15T04:17:03;2.80;;;0.50;;
75311;SDS011;63906;55.686;37.532;2023-04-15T04:22:03;3.60;;;1.17;;
75311;SDS011;63906;55.686;37.532;2023-04-15T04:27:04;1.00;;;0.40;;
75311;SDS011;63906;55.686;37.532;2023-04-15T04:32:05;1.05;;;0.80;;
75311;SDS011;63906;55.686;37.532;2023-04-15T04:37:05;0.75;;;0.43;;
75311;SDS011;63906;55.686;37.532;2023-04-15T04:42:06;4.03;;;1.60;;
75311;SDS011;63906;55.686;37.532;2023-04-15T04:47:06;3.70;;;1.00;;
75311;SDS011;63906;55.686;37.532;2023-04-15T04:52:07;3.97;;;1.27;;
75311;SDS011;63906;55.686;37.532;2023-04-15T04:57:08;1.67;;;0.50;;
75311;SDS011;63906;55.686;37.532;2023-04-15T05:02:08;3.10;;;1.10;;
75311;SDS011;63906;55.686;37.532;2023-04-15T05:07:09;0.32;;;0.30;;
75311;SDS011;63906;55.686;37.532;2023-04-15T05:12:09;2.85;;;1.08;;
75311;SDS011;63906;55.686;37.532;2023-04-15T05:17:13;3.75;;;0.85;;
75311;SDS011;63906;55.686;37.532;2023-04-15T05:22:14;2.40;;;0.73;;
75311;SDS011;63906;55.686;37.532;2023-04-15T05:27:15;1.67;;;0.55;;
75311;SDS011;63906;55.686;37.532;2023-04-15T05:32:15;2.85;;;1.00;;
75311;SDS011;63906;55.686;37.532;2023-04-15T05:37:16;2.60;;;0.73;;
75311;SDS011;63906;55.686;37.532;2023-04-15T05:42:19;1.23;;;0.20;;
75311;SDS011;63906;55.686;37.532;2023-04-15T05:47:20;6.18;;;1.55;;
75311;SDS011;63906;55.686;37.532;2023-04-15T05:52:21;2.97;;;1.13;;
75311;SDS011;63906;55.686;37.532;2023-04-15T05:57:21;3.83;;;1.17;;
75311;SDS011;63906;55.686;37.532;2023-04-15T06:02:22;2.72;;;0.75;;
75311;SDS011;63906;55.686;37.532;2023-04-15T06:07:23;4.20;;;1.77;;
75311;SDS011;63906;55.686;37.532;2023-04-15T06:12:23;5.20;;;1.77;;
75311;SDS011;63906;55.686;37.532;2023-04-15T06:17:24;6.35;;;1.00;;
75311;SDS011;63906;55.686;37.532;2023-04-15T06:22:24;5.15;;;1.00;;
75311;SDS011;63906;55.686;37.532;2023-04-15T06:27:25;3.95;;;1.15;;
75311;SDS011;63906;55.686;37.532;2023-04-15T06:32:25;3.10;;;0.73;;
75311;SDS011;63906;55.686;37.532;2023-04-15T06:37:26;1.25;;;0.50;;
75311;SDS011;63906;55.686;37.532;2023-04-15T06:42:26;2.30;;;1.30;;
75311;SDS011;63906;55.686;37.532;2023-04-15T06:47:27;2.67;;;0.95;;
75311;SDS011;63906;55.686;37.532;2023-04-15T06:52:27;2.55;;;1.38;;
75311;SDS011;63906;55.686;37.532;2023-04-15T06:57:28;0.57;;;0.47;;
75311;SDS011;63906;55.686;37.532;2023-04-15T07:02:28;2.03;;;1.40;;
75311;SDS011;63906;55.686;37.532;2023-04-15T07:07:29;5.55;;;1.35;;
75311;SDS011;63906;55.686;37.532;2023-04-15T07:12:30;1.10;;;0.77;;
75311;SDS011;63906;55.686;37.532;2023-04-15T07:17:30;2.08;;;1.05;;
75311;SDS011;63906;55.686;37.532;2023-04-15T07:22:31;2.03;;;0.80;;
75311;SDS011;63906;55.686;37.532;2023-04-15T07:27:32;2.13;;;0.82;;
75311;SDS011;63906;55.686;37.532;2023-04-15T07:32:32;1.17;;;0.88;;
75311;SDS011;63906;55.686;37.532;2023-04-15T07:37:33;1.05;;;0.50;;
75311;SDS011;63906;55.686;37.532;2023-04-15T07:42:34;5.13;;;1.10;;
75311;SDS011;63906;55.686;37.532;2023-04-15T07:47:34;2.67;;;0.90;;
75311;SDS011;63906;55.686;37.532;2023-04-15T07:52:35;6.80;;;1.77;;
75311;SDS011;63906;55.686;37.532;2023-04-15T08:02:39;5.88;;;1.40;;
75311;SDS011;63906;55.686;37.532;2023-04-15T08:07:40;3.08;;;1.25;;
75311;SDS011;63906;55.686;37.532;2023-04-15T08:12:41;3.85;;;1.20;;
75311;SDS011;63906;55.686;37.532;2023-04-15T08:17:41;7.50;;;1.38;;
75311;SDS011;63906;55.686;37.532;2023-04-15T08:22:42;8.00;;;1.50;;
75311;SDS011;63906;55.686;37.532;2023-04-15T08:27:43;5.25;;;2.13;;
75311;SDS011;63906;55.686;37.532;2023-04-15T08:32:46;2.88;;;1.13;;
75311;SDS011;63906;55.686;37.532;2023-04-15T08:37:47;4.40;;;1.38;;
75311;SDS011;63906;55.686;37.532;2023-04-15T08:42:48;1.85;;;1.17;;
75311;SDS011;63906;55.686;37.532;2023-04-15T08:47:54;3.22;;;1.17;;
75311;SDS011;63906;55.686;37.532;2023-04-15T08:52:57;2.95;;;1.48;;
75311;SDS011;63906;55.686;37.532;2023-04-15T09:03:00;4.53;;;1.60;;
75311;SDS011;63906;55.686;37.532;2023-04-15T09:08:01;1.88;;;0.90;;
75311;SDS011;63906;55.686;37.532;2023-04-15T09:13:02;3.58;;;1.10;;
75311;SDS011;63906;55.686;37.532;2023-04-15T09:18:03;1.45;;;0.68;;
75311;SDS011;63906;55.686;37.532;2023-04-15T09:23:10;2.17;;;1.00;;
75311;SDS011;63906;55.686;37.532;2023-04-15T09:28:14;4.93;;;1.38;;
75311;SDS011;63906;55.686;37.532;2023-04-15T09:33:24;4.25;;;1.58;;
75311;SDS011;63906;55.686;37.532;2023-04-15T09:38:28;4.50;;;1.20;;
75311;SDS011;63906;55.686;37.532;2023-04-15T09:43:38;5.07;;;1.70;;
75311;SDS011;63906;55.686;37.532;2023-04-15T09:48:39;2.97;;;1.73;;
75311;SDS011;63906;55.686;37.532;2023-04-15T09:53:40;1.13;;;0.73;;
75311;SDS011;63906;55.686;37.532;2023-04-15T09:58:40;3.60;;;1.70;;
75311;SDS011;63906;55.686;37.532;2023-04-15T10:03:42;4.20;;;1.30;;
75311;SDS011;63906;55.686;37.532;2023-04-15T10:08:44;4.57;;;1.23;;
75311;SDS011;63906;55.686;37.532;2023-04-15T10:13:46;3.85;;;1.40;;
75311;SDS011;63906;55.686;37.532;2023-04-15T10:18:53;2.65;;;1.50;;
75311;SDS011;63906;55.686;37.532;2023-04-15T10:23:55;3.15;;;1.10;;
75311;SDS011;63906;55.686;37.532;2023-04-15T10:28:57;5.57;;;1.63;;
75311;SDS011;63906;55.686;37.532;2023-04-15T10:33:59;5.13;;;1.63;;
75311;SDS011;63906;55.686;37.532;2023-04-15T10:39:37;2.30;;;0.90;;
75311;SDS011;63906;55.686;37.532;2023-04-15T10:44:35;4.07;;;1.67;;
75311;SDS011;63906;55.686;37.532;2023-04-15T10:50:00;4.53;;;1.45;;
75311;SDS011;63906;55.686;37.532;2023-04-15T11:00:25;4.18;;;1.65;;
75311;SDS011;63906;55.686;37.532;2023-04-15T11:15:41;1.73;;;1.20;;
75311;SDS011;63906;55.686;37.532;2023-04-15T11:20:50;4.05;;;1.73;;
75311;SDS011;63906;55.686;37.532;2023-04-15T11:25:54;3.53;;;1.48;;
75311;SDS011;63906;55.686;37.532;2023-04-15T11:30:57;6.95;;;1.55;;
75311;SDS011;63906;55.686;37.532;2023-04-15T11:35:58;3.45;;;1.65;;
75311;SDS011;63906;55.686;37.532;2023-04-15T11:40:58;4.15;;;1.83;;
75311;SDS011;63906;55.686;37.532;2023-04-15T11:46:00;6.20;;;1.83;;
75311;SDS011;63906;55.686;37.532;2023-04-15T11:51:02;2.78;;;1.60;;
75311;SDS011;63906;55.686;37.532;2023-04-15T11:56:04;3.35;;;1.60;;
75311;SDS011;63906;55.686;37.532;2023-04-15T12:06:11;4.65;;;1.45;;
75311;SDS011;63906;55.686;37.532;2023-04-15T12:16:51;8.13;;;2.30;;
75311;SDS011;63906;55.686;37.532;2023-04-15T12:22:03;5.57;;;1.73;;
75311;SDS011;63906;55.686;37.532;2023-04-15T12:27:06;2.63;;;1.33;;
75311;SDS011;63906;55.686;37.532;2023-04-15T12:32:12;6.55;;;1.50;;
75311;SDS011;63906;55.686;37.532;2023-04-15T12:37:12;2.58;;;1.10;;
75311;SDS011;63906;55.686;37.532;2023-04-15T12:42:14;3.42;;;1.60;;
75311;SDS011;63906;55.686;37.532;2023-04-15T12:47:15;4.10;;;1.15;;
75311;SDS011;63906;55.686;37.532;2023-04-15T12:52:16;3.63;;;1.35;;
75311;SDS011;63906;55.686;37.532;2023-04-15T12:57:16;4.90;;;1.75;;
75311;SDS011;63906;55.686;37.532;2023-04-15T13:02:17;3.47;;;1.10;;
75311;SDS011;63906;55.686;37.532;2023-04-15T13:07:20;6.15;;;1.73;;
75311;SDS011;63906;55.686;37.532;2023-04-15T13:12:20;1.80;;;1.13;;
75311;SDS011;63906;55.686;37.532;2023-04-15T13:17:21;5.10;;;1.48;;
75311;SDS011;63906;55.686;37.532;2023-04-15T13:22:21;7.93;;;1.75;;
75311;SDS011;63906;55.686;37.532;2023-04-15T13:27:22;4.35;;;1.75;;
75311;SDS011;63906;55.686;37.532;2023-04-15T13:32:23;6.85;;;2.60;;
75311;SDS011;63906;55.686;37.532;2023-04-15T13:37:27;3.65;;;1.55;;
75311;SDS011;63906;55.686;37.532;2023-04-15T13:42:28;3.67;;;1.80;;
75311;SDS011;63906;55.686;37.532;2023-04-15T13:47:29;2.80;;;1.42;;
75311;SDS011;63906;55.686;37.532;2023-04-15T13:52:29;4.65;;;1.50;;
75311;SDS011;63906;55.686;37.532;2023-04-15T13:57:30;4.30;;;1.90;;
75311;SDS011;63906;55.686;37.532;2023-04-15T14:02:31;4.45;;;1.20;;
75311;SDS011;63906;55.686;37.532;2023-04-15T14:07:32;2.92;;;1.50;;
75311;SDS011;63906;55.686;37.532;2023-04-15T14:12:33;3.50;;;1.85;;
75311;SDS011;63906;55.686;37.532;2023-04-15T14:17:33;2.70;;;1.13;;
75311;SDS011;63906;55.686;37.532;2023-04-15T14:22:34;3.75;;;1.65;;
75311;SDS011;63906;55.686;37.532;2023-04-15T14:27:35;3.65;;;1.55;;
75311;SDS011;63906;55.686;37.532;2023-04-15T14:32:36;4.50;;;1.35;;
75311;SDS011;63906;55.686;37.532;2023-04-15T14:37:36;3.17;;;1.80;;
75311;SDS011;63906;55.686;37.532;2023-04-15T14:42:37;5.85;;;2.30;;
75311;SDS011;63906;55.686;37.532;2023-04-15T14:47:37;2.63;;;1.33;;
75311;SDS011;63906;55.686;37.532;2023-04-15T14:52:38;3.97;;;1.52;;
75311;SDS011;63906;55.686;37.532;2023-04-15T14:57:39;4.40;;;1.75;;
75311;SDS011;63906;55.686;37.532;2023-04-15T15:02:41;4.75;;;1.80;;
75311;SDS011;63906;55.686;37.532;2023-04-15T15:07:41;4.68;;;1.73;;
75311;SDS011;63906;55.686;37.532;2023-04-15T15:12:42;5.23;;;1.80;;
75311;SDS011;63906;55.686;37.532;2023-04-15T15:17:42;5.28;;;1.58;;
75311;SDS011;63906;55.686;37.532;2023-04-15T15:22:43;3.83;;;1.55;;
75311;SDS011;63906;55.686;37.532;2023-04-15T15:27:43;6.40;;;2.25;;
75311;SDS011;63906;55.686;37.532;2023-04-15T15:32:44;4.85;;;2.10;;
75311;SDS011;63906;55.686;37.532;2023-04-15T15:37:44;5.30;;;1.85;;
75311;SDS011;63906;55.686;37.532;2023-04-15T15:42:45;2.63;;;0.98;;
75311;SDS011;63906;55.686;37.532;2023-04-15T15:47:48;2.83;;;1.50;;
75311;SDS011;63906;55.686;37.532;2023-04-15T15:52:49;7.30;;;2.22;;
75311;SDS011;63906;55.686;37.532;2023-04-15T15:57:50;2.75;;;1.60;;
75311;SDS011;63906;55.686;37.532;2023-04-15T16:02:53;4.72;;;1.50;;
75311;SDS011;63906;55.686;37.532;2023-04-15T16:07:55;5.78;;;1.85;;
75311;SDS011;63906;55.686;37.532;2023-04-15T16:12:55;3.67;;;1.65;;
75311;SDS011;63906;55.686;37.532;2023-04-15T16:17:56;7.57;;;1.85;;
75311;SDS011;63906;55.686;37.532;2023-04-15T16:22:56;4.07;;;2.03;;
75311;SDS011;63906;55.686;37.532;2023-04-15T16:27:58;6.65;;;1.98;;
75311;SDS011;63906;55.686;37.532;2023-04-15T16:32:58;3.88;;;1.67;;
75311;SDS011;63906;55.686;37.532;2023-04-15T16:37:59;3.70;;;1.70;;
75311;SDS011;63906;55.686;37.532;2023-04-15T16:43:01;3.20;;;1.55;;
75311;SDS011;63906;55.686;37.532;2023-04-15T16:48:02;7.32;;;2.53;;
75311;SDS011;63906;55.686;37.532;2023-04-15T16:53:02;3.65;;;1.88;;
75311;SDS011;63906;55.686;37.532;2023-04-15T16:58:03;7.82;;;2.47;;
75311;SDS011;63906;55.686;37.532;2023-04-15T17:03:04;7.30;;;2.33;;
75311;SDS011;63906;55.686;37.532;2023-04-15T17:08:05;7.68;;;3.88;;
75311;SDS011;63906;55.686;37.532;2023-04-15T17:13:05;5.25;;;2.50;;
75311;SDS011;63906;55.686;37.532;2023-04-15T17:18:06;8.43;;;2.90;;
75311;SDS011;63906;55.686;37.532;2023-04-15T17:23:07;6.03;;;2.42;;
75311;SDS011;63906;55.686;37.532;2023-04-15T17:28:08;5.55;;;2.80;;
75311;SDS011;63906;55.686;37.532;2023-04-15T17:33:09;6.68;;;2.58;;
75311;SDS011;63906;55.686;37.532;2023-04-15T17:38:09;6.93;;;2.22;;
75311;SDS011;63906;55.686;37.532;2023-04-15T17:43:10;8.32;;;2.05;;
75311;SDS011;63906;55.686;37.532;2023-04-15T17:48:10;6.70;;;1.83;;
75311;SDS011;63906;55.686;37.532;2023-04-15T17:53:11;2.88;;;1.63;;
75311;SDS011;63906;55.686;37.532;2023-04-15T17:58:11;6.00;;;2.45;;
75311;SDS011;63906;55.686;37.532;2023-04-15T18:03:12;7.28;;;2.10;;
75311;SDS011;63906;55.686;37.532;2023-04-15T18:08:13;5.95;;;2.33;;
75311;SDS011;63906;55.686;37.532;2023-04-15T18:13:13;5.60;;;2.33;;
75311;SDS011;63906;55.686;37.532;2023-04-15T18:18:14;7.78;;;2.70;;
75311;SDS011;63906;55.686;37.532;2023-04-15T18:23:16;3.95;;;2.40;;
75311;SDS011;63906;55.686;37.532;2023-04-15T18:28:16;6.95;;;2.20;;
75311;SDS011;63906;55.686;37.532;2023-04-15T18:33:17;5.45;;;2.47;;
75311;SDS011;63906;55.686;37.532;2023-04-15T18:38:17;6.20;;;2.67;;
75311;SDS011;63906;55.686;37.532;2023-04-15T18:43:18;2.70;;;1.67;;
75311;SDS011;63906;55.686;37.532;2023-04-15T18:48:18;9.70;;;3.13;;
75311;SDS011;63906;55.686;37.532;2023-04-15T18:53:19;13.23;;;4.43;;
75311;SDS011;63906;55.686;37.532;2023-04-15T18:58:20;4.40;;;2.85;;
75311;SDS011;63906;55.686;37.532;2023-04-15T19:03:21;3.88;;;2.10;;
75311;SDS011;63906;55.686;37.532;2023-04-15T19:08:21;4.90;;;2.83;;
75311;SDS011;63906;55.686;37.532;2023-04-15T19:13:22;4.28;;;2.20;;
75311;SDS011;63906;55.686;37.532;2023-04-15T19:23:25;5.97;;;2.77;;
75311;SDS011;63906;55.686;37.532;2023-04-15T19:28:26;7.88;;;2.85;;
75311;SDS011;63906;55.686;37.532;2023-04-15T19:33:27;4.95;;;2.90;;
75311;SDS011;63906;55.686;37.532;2023-04-15T19:38:30;4.57;;;2.00;;
75311;SDS011;63906;55.686;37.532;2023-04-15T19:43:31;6.65;;;2.40;;
75311;SDS011;63906;55.686;37.532;2023-04-15T19:48:32;8.30;;;2.90;;
75311;SDS011;63906;55.686;37.532;2023-04-15T19:53:32;12.07;;;3.50;;
75311;SDS011;63906;55.686;37.532;2023-04-15T19:58:33;8.75;;;3.45;;
75311;SDS011;63906;55.686;37.532;2023-04-15T20:03:34;6.00;;;2.83;;
75311;SDS011;63906;55.686;37.532;2023-04-15T20:08:35;6.20;;;3.25;;
75311;SDS011;63906;55.686;37.532;2023-04-15T20:13:35;5.60;;;2.83;;
75311;SDS011;63906;55.686;37.532;2023-04-15T20:18:35;5.47;;;2.80;;
75311;SDS011;63906;55.686;37.532;2023-04-15T20:23:36;5.75;;;2.88;;
75311;SDS011;63906;55.686;37.532;2023-04-15T20:28:37;6.60;;;3.38;;
75311;SDS011;63906;55.686;37.532;2023-04-15T20:33:37;10.80;;;3.03;;
75311;SDS011;63906;55.686;37.532;2023-04-15T20:38:38;3.07;;;1.53;;
75311;SDS011;63906;55.686;37.532;2023-04-15T20:43:38;4.00;;;1.63;;
75311;SDS011;63906;55.686;37.532;2023-04-15T20:48:39;6.97;;;3.05;;
75311;SDS011;63906;55.686;37.532;2023-04-15T20:53:40;9.02;;;3.65;;
75311;SDS011;63906;55.686;37.532;2023-04-15T20:58:41;8.65;;;3.00;;
75311;SDS011;63906;55.686;37.532;2023-04-15T21:03:41;5.80;;;3.35;;
75311;SDS011;63906;55.686;37.532;2023-04-15T21:08:42;9.05;;;3.35;;
75311;SDS011;63906;55.686;37.532;2023-04-15T21:13:43;7.10;;;3.00;;
75311;SDS011;63906;55.686;37.532;2023-04-15T21:18:45;9.23;;;3.65;;
75311;SDS011;63906;55.686;37.532;2023-04-15T21:23:45;5.55;;;2.45;;
75311;SDS011;63906;55.686;37.532;2023-04-15T21:28:48;5.95;;;2.83;;
75311;SDS011;63906;55.686;37.532;2023-04-15T21:33:49;3.67;;;2.00;;
75311;SDS011;63906;55.686;37.532;2023-04-15T21:38:49;4.00;;;2.25;;
75311;SDS011;63906;55.686;37.532;2023-04-15T21:43:50;5.28;;;2.30;;
75311;SDS011;63906;55.686;37.532;2023-04-15T21:48:54;7.05;;;2.33;;
75311;SDS011;63906;55.686;37.532;2023-04-15T21:53:54;6.70;;;3.13;;
75311;SDS011;63906;55.686;37.532;2023-04-15T21:58:55;13.02;;;3.63;;
75311;SDS011;63906;55.686;37.532;2023-04-15T22:03:56;7.85;;;3.30;;
75311;SDS011;63906;55.686;37.532;2023-04-15T22:08:57;4.67;;;1.73;;
75311;SDS011;63906;55.686;37.532;2023-04-15T22:13:58;8.03;;;3.43;;
75311;SDS011;63906;55.686;37.532;2023-04-15T22:18:58;3.88;;;2.10;;
75311;SDS011;63906;55.686;37.532;2023-04-15T22:23:59;6.88;;;3.42;;
75311;SDS011;63906;55.686;37.532;2023-04-15T22:28:59;5.47;;;3.13;;
75311;SDS011;63906;55.686;37.532;2023-04-15T22:34:00;6.38;;;2.72;;
75311;SDS011;63906;55.686;37.532;2023-04-15T22:39:01;6.00;;;2.60;;
75311;SDS011;63906;55.686;37.532;2023-04-15T22:44:01;5.18;;;2.40;;
75311;SDS011;63906;55.686;37.532;2023-04-15T22:49:02;8.43;;;2.72;;
75311;SDS011;63906;55.686;37.532;2023-04-15T22:54:02;5.57;;;2.70;;
75311;SDS011;63906;55.686;37.532;2023-04-15T22:59:03;6.30;;;2.72;;
75311;SDS011;63906;55.686;37.532;2023-04-15T23:04:04;9.35;;;3.75;;
75311;SDS011;63906;55.686;37.532;2023-04-15T23:09:04;6.07;;;2.80;;
75311;SDS011;63906;55.686;37.532;2023-04-15T23:14:05;7.85;;;3.20;;
75311;SDS011;63906;55.686;37.532;2023-04-15T23:19:05;7.97;;;2.92;;
75311;SDS011;63906;55.686;37.532;2023-04-15T23:24:06;5.32;;;3.10;;
75311;SDS011;63906;55.686;37.532;2023-04-15T23:29:07;5.38;;;2.42;;
75311;SDS011;63906;55.686;37.532;2023-04-15T23:34:08;7.72;;;3.53;;
75311;SDS011;63906;55.686;37.532;2023-04-15T23:39:09;5.15;;;2.53;;
75311;SDS011;63906;55.686;37.532;2023-04-15T23:44:10;7.93;;;3.47;;
75311;SDS011;63906;55.686;37.532;2023-04-15T23:49:10;5.22;;;2.65;;
75311;SDS011;63906;55.686;37.532;2023-04-15T23:54:11;9.30;;;3.78;;
75311;SDS011;63906;55.686;37.532;2023-04-15T23:59:11;7.53;;;2.88;;
